Time;durP1;ratioP1;P1;durP2;ratioP2;P2;SDS_P1;SDS_P2;PMS_P1;PMS_P2;Temp;Humidity;BMP_temperature;BMP_pressure;BME280_temperature;BME280_humidity;BME280_pressure;Samples;Min_cycle;Max_cycle;Signal;HPM_P1;HPM_P2
2021/07/13 00:00:32;;;;;;;13.25;3.33;;;;;;;17.66;59.78;101231.47;5051945;28;20080;-65
2021/07/13 00:02:59;;;;;;;15.40;3.42;;;;;;;17.67;59.92;101221.84;5037581;28;20099;-69
2021/07/13 00:05:27;;;;;;;7.15;3.35;;;;;;;17.69;59.89;101230.03;5037517;28;20136;-67
2021/07/13 00:07:55;;;;;;;12.40;3.60;;;;;;;17.62;60.00;101226.78;5037313;28;20449;-65
2021/07/13 00:10:24;;;;;;;13.10;5.00;;;;;;;17.68;60.00;101219.88;5048838;28;20132;-62
2021/07/13 00:12:53;;;;;;;9.50;4.18;;;;;;;17.56;59.70;101206.25;5037738;28;20045;-62
2021/07/13 00:15:26;;;;;;;13.50;3.95;;;;;;;17.67;60.03;101221.84;5040715;28;20076;-62
2021/07/13 00:17:55;;;;;;;12.70;3.80;;;;;;;17.69;59.94;101225.22;5037065;28;20156;-67
2021/07/13 00:20:24;;;;;;;15.45;3.55;;;;;;;17.71;59.64;101224.91;5036537;28;20049;-65
2021/07/13 00:22:52;;;;;;;14.25;3.78;;;;;;;17.72;59.59;101221.78;5043951;28;20229;-69
2021/07/13 00:25:20;;;;;;;12.35;3.55;;;;;;;17.73;59.61;101219.78;5052601;28;20135;-69
2021/07/13 00:27:47;;;;;;;13.80;3.10;;;;;;;17.74;59.57;101212.97;5056002;28;20136;-68
2021/07/13 00:30:16;;;;;;;9.23;3.63;;;;;;;17.72;59.43;101206.81;5043042;28;20464;-67
2021/07/13 00:32:43;;;;;;;12.90;3.78;;;;;;;17.74;59.37;101211.00;5053956;28;20094;-65
2021/07/13 00:35:10;;;;;;;9.20;2.80;;;;;;;17.72;59.31;101207.63;5054636;28;20072;-66
2021/07/13 00:37:37;;;;;;;12.15;3.28;;;;;;;17.74;58.91;101194.06;5058970;28;20167;-66
2021/07/13 00:40:06;;;;;;;11.10;3.15;;;;;;;17.85;59.14;101208.84;5045324;28;20570;-69
2021/07/13 00:42:33;;;;;;;15.23;3.05;;;;;;;17.86;58.98;101206.84;5045793;28;20113;-72
2021/07/13 00:45:00;;;;;;;9.85;2.90;;;;;;;17.56;58.76;101169.53;5038889;28;20127;-72
2021/07/13 00:47:27;;;;;;;10.80;4.03;;;;;;;17.73;58.63;101189.53;5034631;28;20081;-73
2021/07/13 00:49:55;;;;;;;12.32;3.45;;;;;;;17.75;58.74;101192.06;5039627;28;20045;-72
2021/07/13 00:52:22;;;;;;;12.05;3.58;;;;;;;17.86;58.65;101206.84;5037368;28;20129;-69
2021/07/13 00:54:50;;;;;;;8.77;3.25;;;;;;;17.84;58.43;101203.47;5036433;28;20069;-69
2021/07/13 00:57:19;;;;;;;12.55;3.08;;;;;;;17.76;58.62;101191.75;5048493;28;20048;-70
2021/07/13 00:59:47;;;;;;;7.43;2.80;;;;;;;17.79;58.99;101206.44;5074049;28;20450;-70
2021/07/13 01:02:15;;;;;;;10.15;3.05;;;;;;;17.71;58.64;101197.50;5043259;28;20096;-70
2021/07/13 01:04:50;;;;;;;8.73;3.60;;;;;;;17.67;58.96;101204.06;5037218;28;20107;-69
2021/07/13 01:08:00;;;;;;;9.32;3.53;;;;;;;17.64;59.13;101201.88;5036795;28;20433;-68
2021/07/13 01:10:30;;;;;;;8.77;3.10;;;;;;;17.62;58.86;101207.84;5042131;28;20127;-67
2021/07/13 01:13:01;;;;;;;10.50;2.50;;;;;;;17.57;59.03;101207.94;5046453;28;20077;-68
2021/07/13 01:15:32;;;;;;;7.32;3.13;;;;;;;17.52;59.24;101196.75;5034676;28;20579;-67
2021/07/13 01:18:18;;;;;;;7.25;2.85;;;;;;;17.49;58.78;101203.00;5034152;28;20482;-68
2021/07/13 01:21:03;;;;;;;8.00;3.63;;;;;;;17.45;59.08;101199.97;5040928;28;20136;-68
2021/07/13 01:23:48;;;;;;;15.10;3.67;;;;;;;17.40;59.11;101194.44;5044251;28;20485;-69
2021/07/13 01:26:42;;;;;;;13.25;4.00;;;;;;;17.39;59.37;101198.38;5035201;28;20466;-67
2021/07/13 01:29:12;;;;;;;10.50;3.95;;;;;;;17.25;59.21;101178.59;5040270;28;20103;-66
2021/07/13 01:31:42;;;;;;;10.52;4.07;;;;;;;17.23;59.33;101178.09;5048001;28;20076;-66
2021/07/13 01:34:19;;;;;;;12.50;3.53;;;;;;;17.26;59.09;101194.41;5039986;28;20139;-69
2021/07/13 01:36:50;;;;;;;12.82;4.15;;;;;;;17.25;59.41;101194.69;5032873;28;20128;-69
2021/07/13 01:39:19;;;;;;;11.98;4.20;;;;;;;17.21;59.73;101191.66;5043545;28;20141;-66
2021/07/13 01:41:52;;;;;;;10.98;4.32;;;;;;;17.16;59.92;101183.31;5035416;28;20053;-69
2021/07/13 01:44:21;;;;;;;16.17;4.80;;;;;;;17.19;59.87;101185.47;5033770;28;20045;-68
2021/07/13 01:46:52;;;;;;;16.13;4.88;;;;;;;17.18;59.71;101186.63;5032844;28;20084;-62
2021/07/13 01:49:22;;;;;;;17.88;4.88;;;;;;;17.17;59.78;101187.78;5033024;28;20077;-62
2021/07/13 01:51:51;;;;;;;18.92;4.43;;;;;;;17.11;60.03;101179.72;5046273;28;20136;-62
2021/07/13 01:54:24;;;;;;;13.50;5.32;;;;;;;17.02;59.80;101168.28;5044246;28;20053;-62
2021/07/13 01:56:55;;;;;;;11.68;4.63;;;;;;;17.12;59.94;101181.38;5033985;28;20128;-63
2021/07/13 01:59:23;;;;;;;10.77;4.70;;;;;;;17.14;60.16;101176.28;5040394;28;20567;-62
2021/07/13 02:01:57;;;;;;;11.40;4.43;;;;;;;17.12;59.88;101172.94;5037296;28;20076;-62
2021/07/13 02:04:29;;;;;;;20.92;4.88;;;;;;;16.99;59.74;101157.63;5033872;28;20137;-61
2021/07/13 02:07:01;;;;;;;12.00;4.47;;;;;;;17.08;60.01;101181.19;5059434;28;20132;-64
2021/07/13 02:09:28;;;;;;;12.38;4.05;;;;;;;17.03;59.86;101175.63;5033180;28;20553;-64
2021/07/13 02:12:00;;;;;;;14.15;4.15;;;;;;;17.05;59.77;101174.16;5034296;28;20049;-62
2021/07/13 02:14:27;;;;;;;19.95;5.75;;;;;;;17.04;60.00;101182.94;5050330;28;20069;-62
2021/07/13 02:16:54;;;;;;;17.73;4.20;;;;;;;16.97;60.39;101162.75;5036687;28;20053;-62
2021/07/13 02:19:21;;;;;;;15.80;4.45;;;;;;;17.03;60.20;101162.34;5033299;28;20136;-61
2021/07/13 02:21:49;;;;;;;15.73;4.63;;;;;;;16.99;60.08;101146.34;5044585;28;20103;-61
2021/07/13 02:24:17;;;;;;;11.50;3.95;;;;;;;16.95;60.19;101132.00;5043632;28;20045;-61
2021/07/13 02:26:50;;;;;;;14.75;3.63;;;;;;;16.96;60.57;101138.53;5048173;28;20563;-61
2021/07/13 02:29:29;;;;;;;14.60;4.25;;;;;;;17.03;60.05;101144.59;5043546;28;20080;-61
2021/07/13 02:32:04;;;;;;;17.48;4.38;;;;;;;17.02;60.43;101142.91;5042669;28;20068;-64
2021/07/13 02:34:38;;;;;;;9.43;3.08;;;;;;;16.95;60.17;101129.19;5048277;28;20090;-65
2021/07/13 02:37:07;;;;;;;9.95;3.78;;;;;;;17.03;60.56;101144.59;5040026;28;20049;-65
2021/07/13 02:39:38;;;;;;;14.85;3.95;;;;;;;16.91;60.18;101135.78;5043827;28;20068;-63
2021/07/13 02:42:05;;;;;;;15.02;3.95;;;;;;;17.05;60.37;101153.56;5033973;28;20144;-63
2021/07/13 02:44:34;;;;;;;13.13;3.80;;;;;;;17.04;60.23;101151.91;5037205;28;20095;-63
2021/07/13 02:47:06;;;;;;;18.65;3.75;;;;;;;16.97;60.55;101145.84;5046482;28;20132;-62
2021/07/13 02:49:38;;;;;;;17.85;4.40;;;;;;;16.84;60.29;101126.88;5046475;28;20589;-61
2021/07/13 02:52:07;;;;;;;15.82;4.55;;;;;;;16.86;60.28;101138.69;5040310;28;20137;-62
2021/07/13 02:54:36;;;;;;;8.03;3.37;;;;;;;16.92;60.49;101160.00;5032470;28;20136;-63
2021/07/13 02:57:04;;;;;;;12.35;4.10;;;;;;;16.89;60.27;101157.81;5032053;28;20045;-63
2021/07/13 02:59:33;;;;;;;10.82;4.50;;;;;;;16.86;60.65;101167.75;5049415;28;20137;-65
2021/07/13 03:02:00;;;;;;;12.87;4.37;;;;;;;16.85;60.51;101168.88;5044882;28;20072;-65
2021/07/13 03:04:29;;;;;;;18.95;4.55;;;;;;;16.71;60.67;101154.69;5048467;28;20076;-69
2021/07/13 03:06:57;;;;;;;14.25;4.13;;;;;;;16.78;60.56;101163.63;5047543;28;20044;-70
2021/07/13 03:09:24;;;;;;;14.85;4.55;;;;;;;16.68;60.56;101152.47;5038925;28;20076;-70
2021/07/13 03:11:51;;;;;;;16.23;3.40;;;;;;;16.66;61.05;101140.69;5045582;28;20140;-69
2021/07/13 03:14:20;;;;;;;11.43;3.38;;;;;;;16.69;61.11;101140.06;5045880;28;20475;-69
2021/07/13 03:16:49;;;;;;;13.07;3.58;;;;;;;16.75;60.87;101150.16;5045173;28;20180;-69
2021/07/13 03:19:16;;;;;;;8.65;3.80;;;;;;;16.77;60.94;101150.66;5048334;28;20072;-68
2021/07/13 03:21:50;;;;;;;10.25;3.70;;;;;;;16.64;60.96;101133.66;5040585;28;20767;-68
2021/07/13 03:24:18;;;;;;;12.93;3.83;;;;;;;16.83;61.01;101150.59;5031360;28;20063;-69
2021/07/13 03:26:46;;;;;;;15.02;3.80;;;;;;;16.76;61.00;101149.00;5031793;28;20276;-68
2021/07/13 03:29:13;;;;;;;13.77;3.58;;;;;;;16.88;60.90;101154.16;5038305;28;20087;-70
2021/07/13 03:31:42;;;;;;;9.27;3.50;;;;;;;16.87;60.98;101149.66;5048075;28;20045;-69
2021/07/13 03:34:10;;;;;;;21.92;5.50;;;;;;;16.74;60.88;101127.84;5048296;28;20092;-68
2021/07/13 03:36:38;;;;;;;14.13;4.38;;;;;;;16.77;60.97;101133.75;5044244;28;20412;-68
2021/07/13 03:39:06;;;;;;;13.60;4.43;;;;;;;16.91;60.94;101158.34;5045110;28;20049;-69
2021/07/13 03:41:35;;;;;;;13.75;4.00;;;;;;;16.83;60.74;101142.13;5039371;28;20048;-68
2021/07/13 03:44:04;;;;;;;15.15;5.07;;;;;;;16.88;60.99;101151.31;5042474;28;20046;-71
2021/07/13 03:46:36;;;;;;;12.37;5.13;;;;;;;16.80;61.04;101150.06;5043561;28;20054;-74
2021/07/13 03:49:06;;;;;;;14.10;4.70;;;;;;;16.87;60.84;101157.28;5040347;28;20049;-74
2021/07/13 03:51:39;;;;;;;15.48;5.10;;;;;;;16.86;60.81;101164.09;5042885;28;20044;-72
2021/07/13 03:54:07;;;;;;;16.38;5.40;;;;;;;16.86;61.07;101153.63;5037273;28;20058;-70
2021/07/13 03:56:34;;;;;;;16.90;5.40;;;;;;;16.87;61.01;101157.28;5044039;28;20470;-71
2021/07/13 03:59:03;;;;;;;13.77;4.47;;;;;;;16.74;61.00;101142.81;5041826;28;20049;-70
2021/07/13 04:01:30;;;;;;;11.50;5.38;;;;;;;16.77;61.15;101147.84;5033478;28;20037;-70
2021/07/13 04:03:59;;;;;;;11.68;3.92;;;;;;;16.78;60.90;101157.97;5037745;28;20455;-67
2021/07/13 04:06:26;;;;;;;14.70;5.00;;;;;;;16.64;60.88;101153.41;5047903;28;20045;-67
2021/07/13 04:08:54;;;;;;;12.80;4.88;;;;;;;16.69;61.37;101154.16;5036084;28;20068;-69
2021/07/13 04:11:21;;;;;;;17.30;4.68;;;;;;;16.74;61.03;101168.19;5035461;28;20489;-66
2021/07/13 04:13:48;;;;;;;13.05;4.88;;;;;;;16.69;61.20;101162.63;5029194;28;20048;-65
2021/07/13 04:16:16;;;;;;;15.00;5.03;;;;;;;16.69;61.38;101173.91;5051024;28;20042;-65
2021/07/13 04:18:43;;;;;;;11.43;4.13;;;;;;;16.68;61.37;101166.56;5032910;28;20123;-67
2021/07/13 04:21:10;;;;;;;8.93;3.90;;;;;;;16.67;61.55;101170.53;5040423;28;20499;-67
2021/07/13 04:23:37;;;;;;;8.77;3.37;;;;;;;16.63;61.43;101152.56;5046281;28;20505;-67
2021/07/13 04:26:05;;;;;;;8.75;2.90;;;;;;;16.68;61.33;101154.47;5034702;28;20046;-66
2021/07/13 04:28:32;;;;;;;10.45;3.13;;;;;;;16.67;61.15;101153.63;5051100;28;20045;-66
2021/07/13 04:31:01;;;;;;;6.05;3.00;;;;;;;16.58;61.05;101127.25;5045570;28;20065;-66
2021/07/13 04:33:29;;;;;;;10.18;3.25;;;;;;;16.72;61.27;101145.09;5040765;28;20053;-70
2021/07/13 04:35:57;;;;;;;7.17;3.13;;;;;;;16.67;61.16;101145.16;5041484;28;20064;-67
2021/07/13 04:38:25;;;;;;;10.35;3.03;;;;;;;16.64;61.35;101126.03;5041319;28;20450;-67
2021/07/13 04:40:53;;;;;;;9.90;3.60;;;;;;;16.75;60.75;101141.69;5037360;28;20041;-67
2021/07/13 04:43:20;;;;;;;7.20;3.03;;;;;;;16.75;61.24;101144.50;5042681;28;20514;-67
2021/07/13 04:45:47;;;;;;;6.35;2.88;;;;;;;16.74;61.09;101148.47;5047254;28;20077;-70
2021/07/13 04:48:14;;;;;;;11.67;3.13;;;;;;;16.65;61.32;101133.38;5040908;28;20063;-70
2021/07/13 04:50:41;;;;;;;8.20;2.50;;;;;;;16.59;61.14;101126.13;5033897;28;20076;-71
2021/07/13 04:53:08;;;;;;;7.50;3.20;;;;;;;16.74;60.82;101153.22;5034916;28;20081;-64
2021/07/13 04:55:35;;;;;;;12.07;2.60;;;;;;;16.72;60.96;101155.53;5034430;28;20049;-64
2021/07/13 04:58:02;;;;;;;10.63;3.25;;;;;;;16.71;61.20;101157.50;5034010;28;20069;-67
2021/07/13 05:00:29;;;;;;;6.18;2.92;;;;;;;16.67;60.79;101162.09;5036918;28;20110;-66
2021/07/13 05:02:56;;;;;;;9.82;2.80;;;;;;;16.61;60.90;101152.03;5035351;28;20120;-68
2021/07/13 05:05:23;;;;;;;10.33;2.97;;;;;;;16.61;61.05;101166.13;5042125;28;20060;-72
2021/07/13 05:07:50;;;;;;;9.07;3.65;;;;;;;16.51;60.97;101150.22;5048755;28;20140;-72
2021/07/13 05:10:17;;;;;;;6.47;3.28;;;;;;;16.52;61.16;101159.53;5044465;28;20137;-65
2021/07/13 05:12:45;;;;;;;5.95;3.30;;;;;;;16.54;61.16;101148.75;5037613;28;20068;-62
2021/07/13 05:15:14;;;;;;;11.02;3.45;;;;;;;16.54;61.17;101154.41;5039878;28;20087;-65
2021/07/13 05:17:41;;;;;;;8.23;3.28;;;;;;;16.51;61.22;101161.50;5045850;28;20037;-62
2021/07/13 05:20:12;;;;;;;8.68;2.92;;;;;;;16.52;61.20;101156.69;5043477;28;20128;-65
2021/07/13 05:22:39;;;;;;;11.60;3.77;;;;;;;16.44;61.16;101160.19;5043201;28;20045;-65
2021/07/13 05:25:07;;;;;;;10.13;3.63;;;;;;;16.46;61.43;101163.56;5039802;28;20092;-65
2021/07/13 05:27:38;;;;;;;7.88;3.28;;;;;;;16.42;61.44;101168.13;5047869;28;20472;-63
2021/07/13 05:30:07;;;;;;;9.30;3.53;;;;;;;16.35;61.33;101166.53;5039121;28;20057;-64
2021/07/13 05:32:34;;;;;;;6.32;3.38;;;;;;;16.30;61.73;101166.59;5039433;28;20081;-62
2021/07/13 05:35:01;;;;;;;8.10;3.80;;;;;;;16.31;61.83;101173.94;5046008;28;20049;-63
2021/07/13 05:37:28;;;;;;;6.97;3.33;;;;;;;16.30;61.74;101175.03;5052629;28;20073;-62
2021/07/13 05:39:55;;;;;;;8.68;3.47;;;;;;;16.33;62.03;101177.25;5047612;28;20171;-62
2021/07/13 05:42:22;;;;;;;11.43;4.05;;;;;;;16.40;61.80;101176.03;5037062;28;20132;-62
2021/07/13 05:44:49;;;;;;;12.27;3.35;;;;;;;16.32;61.91;101158.69;5035194;28;20461;-63
2021/07/13 05:47:16;;;;;;;10.63;3.83;;;;;;;16.54;62.00;101171.31;5038950;28;20123;-63
2021/07/13 05:49:43;;;;;;;11.00;4.50;;;;;;;16.68;61.94;101182.66;5039760;28;20457;-62
2021/07/13 05:52:10;;;;;;;9.38;4.20;;;;;;;16.79;61.55;101182.22;5036878;28;20045;-63
2021/07/13 05:54:37;;;;;;;12.52;5.13;;;;;;;16.89;61.96;101171.91;5034371;28;20488;-63
2021/07/13 05:57:07;;;;;;;14.73;8.30;;;;;;;17.09;61.73;101187.66;5036348;28;20045;-61
2021/07/13 05:59:34;;;;;;;16.17;8.38;;;;;;;17.26;61.12;101188.75;5037657;28;20545;-62
2021/07/13 06:02:00;;;;;;;19.13;7.85;;;;;;;17.34;61.30;101186.38;5036560;28;20856;-62
2021/07/13 06:04:27;;;;;;;14.38;7.75;;;;;;;17.22;61.28;101172.75;5038643;28;20164;-61
2021/07/13 06:06:54;;;;;;;11.32;5.78;;;;;;;17.34;61.36;101189.19;5043120;28;20069;-60
2021/07/13 06:09:21;;;;;;;14.70;4.78;;;;;;;17.46;61.42;101187.53;5037993;28;20493;-61
2021/07/13 06:11:48;;;;;;;10.45;4.15;;;;;;;17.39;61.16;101167.34;5045625;28;20037;-61
2021/07/13 06:14:15;;;;;;;9.40;4.25;;;;;;;17.56;61.24;101186.50;5041784;28;20132;-60
2021/07/13 06:17:00;;;;;;;8.88;4.20;;;;;;;17.66;61.27;101180.63;5031388;28;20045;-60
2021/07/13 06:19:27;;;;;;;11.50;4.40;;;;;;;17.71;61.01;101177.72;5031752;28;20172;-61
2021/07/13 06:21:53;;;;;;;14.88;5.28;;;;;;;17.84;60.79;101180.88;5029146;28;20124;-61
2021/07/13 06:24:20;;;;;;;11.70;5.35;;;;;;;18.11;60.15;101192.16;5036000;28;20045;-61
2021/07/13 06:26:48;;;;;;;7.45;4.40;;;;;;;18.15;59.92;101184.75;5045718;28;20124;-59
2021/07/13 06:29:14;;;;;;;10.10;4.38;;;;;;;18.33;59.75;101185.75;5037553;28;20135;-61
2021/07/13 06:31:41;;;;;;;13.40;4.75;;;;;;;18.47;59.41;101180.06;5034367;28;20558;-61
2021/07/13 06:34:08;;;;;;;9.73;4.40;;;;;;;18.75;58.80;101194.16;5041935;28;20136;-61
2021/07/13 06:36:35;;;;;;;8.73;3.88;;;;;;;18.89;58.67;101195.75;5040283;28;20164;-62
2021/07/13 06:39:02;;;;;;;12.80;4.80;;;;;;;19.04;58.16;101210.66;5043107;28;20044;-63
2021/07/13 06:41:29;;;;;;;9.32;3.88;;;;;;;19.13;57.92;101200.25;5040593;28;20157;-62
2021/07/13 06:43:56;;;;;;;10.30;4.22;;;;;;;19.27;57.59;101197.34;5031564;28;20650;-66
2021/07/13 06:46:23;;;;;;;7.15;3.67;;;;;;;19.43;57.15;101209.94;5044206;28;20115;-64
2021/07/13 06:48:50;;;;;;;6.57;3.00;;;;;;;20.02;56.47;101204.88;5033655;28;20154;-62
2021/07/13 06:51:17;;;;;;;10.43;3.67;;;;;;;20.55;55.02;101201.03;5041112;28;20124;-62
2021/07/13 06:53:43;;;;;;;5.47;2.67;;;;;;;20.98;54.11;101197.34;5033473;28;20517;-63
2021/07/13 06:56:10;;;;;;;4.53;2.63;;;;;;;21.65;53.07;101209.28;5031340;28;20103;-61
2021/07/13 06:58:37;;;;;;;6.97;2.67;;;;;;;22.14;51.95;101218.25;5032085;28;20132;-60
2021/07/13 07:01:04;;;;;;;5.40;2.50;;;;;;;22.64;51.01;101200.38;5031868;28;20088;-60
2021/07/13 07:03:31;;;;;;;10.18;2.20;;;;;;;23.09;50.09;101220.44;5032082;28;20053;-61
2021/07/13 07:05:58;;;;;;;6.88;2.30;;;;;;;23.50;49.33;101212.16;5032123;28;20042;-61
2021/07/13 07:08:27;;;;;;;;;;;;;;;23.90;50.25;101200.97;5054270;28;20102;-60
2021/07/13 07:11:11;;;;;;;6.63;2.55;;;;;;;24.47;47.91;101211.41;5048419;28;19920;-61
2021/07/13 07:13:39;;;;;;;7.25;2.47;;;;;;;24.91;46.84;101205.84;5047511;28;20073;-62
2021/07/13 07:16:07;;;;;;;6.32;2.38;;;;;;;25.23;46.05;101201.09;5051830;28;20049;-61
2021/07/13 07:18:34;;;;;;;8.45;2.53;;;;;;;25.12;45.51;101199.94;5051881;28;20045;-61
2021/07/13 07:21:01;;;;;;;6.40;2.65;;;;;;;25.37;44.97;101205.53;5034073;28;20092;-61
2021/07/13 07:23:28;;;;;;;5.88;2.70;;;;;;;25.45;44.54;101211.09;5033470;28;20132;-61
2021/07/13 07:25:54;;;;;;;9.57;3.05;;;;;;;25.68;44.28;101211.34;5051285;28;20045;-62
2021/07/13 07:28:21;;;;;;;5.72;2.55;;;;;;;25.74;43.92;101204.13;5051311;28;20479;-61
2021/07/13 07:30:48;;;;;;;6.82;3.75;;;;;;;25.94;43.47;101207.94;5049977;28;20060;-62
2021/07/13 07:33:15;;;;;;;12.10;3.38;;;;;;;26.26;42.83;101218.53;5051565;28;20132;-61
2021/07/13 07:35:42;;;;;;;10.77;3.83;;;;;;;26.09;41.98;101168.25;5049650;28;20095;-63
2021/07/13 07:38:11;;;;;;;5.72;2.65;;;;;;;26.46;41.96;101198.19;5051024;28;20069;-62
2021/07/13 07:40:39;;;;;;;5.50;2.47;;;;;;;26.62;41.58;101195.28;5031190;28;20490;-62
2021/07/13 07:43:06;;;;;;;5.72;2.80;;;;;;;26.81;41.21;101182.22;5043133;28;20556;-61
2021/07/13 07:45:33;;;;;;;6.50;3.30;;;;;;;27.20;40.44;101228.91;5034275;28;20497;-62
2021/07/13 07:48:00;;;;;;;5.75;3.00;;;;;;;27.44;40.00;101227.75;5034801;28;20132;-62
2021/07/13 07:50:28;;;;;;;5.50;2.20;;;;;;;27.66;39.77;101217.53;5038569;28;20168;-61
2021/07/13 07:52:55;;;;;;;5.80;2.33;;;;;;;27.62;39.51;101230.97;5040410;28;20482;-62
2021/07/13 07:55:25;;;;;;;5.47;2.10;;;;;;;27.86;39.06;101224.91;5050283;28;20539;-62
2021/07/13 07:57:53;;;;;;;10.88;3.60;;;;;;;28.14;38.02;101214.28;5053330;28;20051;-62
2021/07/13 08:00:20;;;;;;;5.57;2.38;;;;;;;28.23;38.02;101218.53;5054973;28;20068;-63
2021/07/13 08:02:47;;;;;;;3.78;1.92;;;;;;;28.33;37.43;101219.94;5053903;28;20118;-61
2021/07/13 08:05:15;;;;;;;3.20;1.80;;;;;;;28.37;37.42;101220.81;5055221;28;20051;-62
2021/07/13 08:07:43;;;;;;;5.07;2.30;;;;;;;28.31;37.33;101217.47;5042707;28;20068;-62
2021/07/13 08:10:11;;;;;;;3.17;1.98;;;;;;;28.28;36.95;101171.44;5043541;28;20084;-60
2021/07/13 08:12:42;;;;;;;5.32;1.90;;;;;;;28.44;37.12;101212.31;5041772;28;20140;-66
2021/07/13 08:15:10;;;;;;;7.15;2.45;;;;;;;28.26;36.78;101177.56;5037864;28;20576;-61
2021/07/13 08:17:39;;;;;;;4.53;1.60;;;;;;;28.17;36.76;101202.03;5041942;28;20064;-61
2021/07/13 08:20:06;;;;;;;5.53;2.10;;;;;;;28.26;37.03;101194.78;5035894;28;20129;-62
2021/07/13 08:22:34;;;;;;;5.85;1.95;;;;;;;28.42;36.69;101203.28;5047886;28;20037;-64
2021/07/13 08:25:02;;;;;;;3.17;1.70;;;;;;;28.52;36.15;101202.63;5036887;28;20080;-62
2021/07/13 08:27:29;;;;;;;4.00;1.98;;;;;;;28.71;36.29;101203.69;5036669;28;20068;-61
2021/07/13 08:29:57;;;;;;;7.32;2.30;;;;;;;29.04;35.59;101198.00;5037550;28;20083;-63
2021/07/13 08:32:24;;;;;;;7.32;2.38;;;;;;;29.11;35.69;101194.41;5039827;28;20183;-63
2021/07/13 08:34:50;;;;;;;4.40;2.17;;;;;;;29.36;35.23;101199.63;5031247;28;20128;-61
2021/07/13 08:37:20;;;;;;;6.15;2.15;;;;;;;29.46;35.17;101198.91;5048609;28;20128;-61
2021/07/13 08:39:48;;;;;;;6.47;2.58;;;;;;;29.59;34.61;101185.06;5046937;28;20127;-64
2021/07/13 08:42:16;;;;;;;5.03;2.03;;;;;;;29.79;34.19;101188.59;5047967;28;20145;-61
2021/07/13 08:44:43;;;;;;;4.78;2.25;;;;;;;29.72;34.20;101160.56;5061319;28;20123;-62
2021/07/13 08:47:15;;;;;;;6.13;2.30;;;;;;;29.95;33.70;101192.84;5048794;28;20100;-62
2021/07/13 08:49:46;;;;;;;3.15;1.83;;;;;;;30.05;34.01;101196.19;5044835;28;20077;-62
2021/07/13 08:52:13;;;;;;;3.97;1.85;;;;;;;30.01;33.85;101195.34;5038747;28;20072;-62
2021/07/13 08:54:40;;;;;;;5.88;2.00;;;;;;;29.91;33.72;101194.03;5035281;28;20136;-62
2021/07/13 08:57:09;;;;;;;6.18;2.25;;;;;;;30.01;33.71;101190.41;5035880;28;20045;-64
2021/07/13 08:59:38;;;;;;;4.30;2.05;;;;;;;30.19;32.80;101182.78;5052215;28;20053;-62
2021/07/13 09:02:05;;;;;;;6.50;2.30;;;;;;;30.32;32.84;101191.91;5038190;28;20107;-61
2021/07/13 09:04:33;;;;;;;6.45;2.58;;;;;;;30.24;32.69;101170.06;5050459;28;20049;-62
2021/07/13 09:07:07;;;;;;;5.53;1.88;;;;;;;30.34;32.34;101180.81;5034673;28;20401;-61
2021/07/13 09:09:39;;;;;;;6.13;2.20;;;;;;;30.32;32.43;101174.63;5041347;28;20143;-62
2021/07/13 09:12:11;;;;;;;3.65;1.90;;;;;;;30.52;32.28;101174.34;5036346;28;20470;-61
2021/07/13 09:14:49;;;;;;;4.85;2.67;;;;;;;30.55;32.55;101173.53;5039516;28;20080;-61
2021/07/13 09:17:34;;;;;;;6.60;3.42;;;;;;;30.73;31.65;101168.69;5042338;28;20077;-61
2021/07/13 09:20:17;;;;;;;8.73;3.17;;;;;;;30.80;32.17;101170.81;5044680;28;20137;-61
2021/07/13 09:22:59;;;;;;;7.35;2.45;;;;;;;30.87;32.24;101162.19;5040277;28;20073;-61
2021/07/13 09:25:32;;;;;;;4.63;2.25;;;;;;;31.00;32.04;101143.28;5037954;28;20106;-63
2021/07/13 09:28:18;;;;;;;5.63;2.55;;;;;;;31.02;31.42;101160.22;5041606;28;20051;-62
2021/07/13 09:30:57;;;;;;;5.20;1.80;;;;;;;31.14;31.16;101159.81;5034969;28;20548;-62
2021/07/13 09:33:28;;;;;;;;;;;;;;;30.83;33.46;101147.75;5041698;28;20056;-62
2021/07/13 09:36:07;;;;;;;5.25;2.00;;;;;;;31.07;32.23;101154.03;5041689;28;20004;-61
2021/07/13 09:38:52;;;;;;;;;;;;;;;30.88;33.41;101160.97;5037397;28;20505;-62
2021/07/13 09:41:25;;;;;;;3.40;1.85;;;;;;;31.15;31.84;101149.94;5049046;28;19999;-61
2021/07/13 09:43:52;;;;;;;4.72;1.95;;;;;;;31.42;31.50;101167.78;5042134;28;20077;-61
2021/07/13 09:46:26;;;;;;;3.10;1.88;;;;;;;31.58;30.68;101152.94;5045596;28;20132;-61
2021/07/13 09:49:10;;;;;;;2.72;2.00;;;;;;;31.67;30.89;101147.59;5040551;28;20061;-61
2021/07/13 09:51:39;;;;;;;3.72;1.75;;;;;;;31.99;30.14;101138.13;5039073;28;20091;-62
2021/07/13 09:54:39;;;;;;;3.85;2.22;;;;;;;31.99;30.00;101143.91;5038599;28;20496;-62
2021/07/13 09:57:11;;;;;;;4.00;1.92;;;;;;;32.12;29.35;101153.81;5041176;28;20437;-62
2021/07/13 09:59:38;;;;;;;3.28;1.77;;;;;;;31.82;29.31;101094.38;5044946;28;20477;-62
2021/07/13 10:02:07;;;;;;;7.22;2.63;;;;;;;32.04;29.36;101138.53;5040482;28;20080;-62
2021/07/13 10:04:39;;;;;;;5.20;2.85;;;;;;;32.17;29.58;101146.75;5040094;28;20152;-62
2021/07/13 10:07:15;;;;;;;4.95;2.25;;;;;;;32.00;29.44;101136.88;5041929;28;20053;-61
2021/07/13 10:09:47;;;;;;;4.28;2.28;;;;;;;31.93;29.40;101120.38;5039988;28;20041;-61
2021/07/13 10:12:20;;;;;;;1.80;1.60;;;;;;;32.04;29.40;101137.72;5042455;28;20080;-62
2021/07/13 10:14:49;;;;;;;1.90;1.20;;;;;;;32.18;29.13;101134.81;5047636;28;20085;-62
2021/07/13 10:17:17;;;;;;;3.15;1.52;;;;;;;32.35;28.66;101138.09;5049003;28;20136;-62
2021/07/13 10:19:51;;;;;;;2.38;1.50;;;;;;;32.36;28.46;101139.72;5044368;28;20045;-62
2021/07/13 10:22:22;;;;;;;3.85;1.60;;;;;;;32.38;28.68;101137.22;5045577;28;20472;-62
2021/07/13 10:24:53;;;;;;;2.78;1.48;;;;;;;32.45;28.69;101114.13;5047596;28;20083;-62
2021/07/13 10:27:37;;;;;;;2.17;1.63;;;;;;;32.67;28.63;101118.59;5038270;28;20532;-62
2021/07/13 10:30:26;;;;;;;4.15;1.60;;;;;;;32.53;28.20;101136.81;5041634;28;20127;-62
2021/07/13 10:32:53;;;;;;;2.28;1.27;;;;;;;32.66;27.97;101148.75;5033841;28;20124;-62
2021/07/13 10:35:30;;;;;;;2.13;1.35;;;;;;;32.74;27.78;101141.69;5044133;28;20128;-62
2021/07/13 10:38:21;;;;;;;4.40;1.85;;;;;;;32.65;28.44;101150.00;5038734;28;20417;-62
2021/07/13 10:40:49;;;;;;;2.85;2.03;;;;;;;32.68;28.28;101142.53;5042191;28;20570;-61
2021/07/13 10:43:19;;;;;;;9.13;2.95;;;;;;;32.62;28.48;101136.38;5034676;28;20129;-62
2021/07/13 10:45:47;;;;;;;5.43;1.75;;;;;;;32.66;28.04;101145.88;5047733;28;20125;-63
2021/07/13 10:48:16;;;;;;;3.03;1.65;;;;;;;32.68;28.03;101157.81;5043638;28;20049;-62
2021/07/13 10:50:59;;;;;;;4.72;1.80;;;;;;;32.71;28.08;101130.13;5055528;28;20051;-62
2021/07/13 10:53:29;;;;;;;3.38;1.40;;;;;;;32.97;27.68;101138.31;5047047;28;20077;-63
2021/07/13 10:55:57;;;;;;;4.25;1.50;;;;;;;32.95;27.45;101139.94;5045222;28;20041;-62
2021/07/13 10:58:34;;;;;;;4.25;1.40;;;;;;;32.88;27.82;101128.41;5038243;28;20457;-62
2021/07/13 11:01:03;;;;;;;4.43;1.40;;;;;;;33.10;27.49;101135.78;5033287;28;20056;-62
2021/07/13 11:03:33;;;;;;;3.75;1.85;;;;;;;33.16;27.61;101145.66;5036189;28;20056;-62
2021/07/13 11:06:15;;;;;;;5.93;1.98;;;;;;;33.11;28.39;101116.34;5033703;28;20084;-62
2021/07/13 11:08:46;;;;;;;9.88;2.22;;;;;;;33.16;28.41;101136.97;5039068;28;20143;-66
2021/07/13 11:13:45;;;;;;;4.53;1.90;;;;;;;33.33;27.74;101119.91;5037175;28;20128;-66
2021/07/13 11:16:14;;;;;;;4.72;2.25;;;;;;;33.38;28.42;101110.78;5037007;28;20136;-66
2021/07/13 11:18:42;;;;;;;9.00;2.47;;;;;;;33.23;28.43;101104.25;5034843;28;20049;-66
2021/07/13 11:21:32;;;;;;;7.40;2.93;;;;;;;33.15;29.01;101112.16;5031867;28;20053;-66
2021/07/13 11:24:08;;;;;;;6.90;2.95;;;;;;;33.13;28.64;101108.91;5041294;28;20373;-66
2021/07/13 11:26:42;;;;;;;4.88;2.40;;;;;;;33.00;29.09;101093.25;5036912;28;20073;-66
2021/07/13 11:29:48;;;;;;;7.22;2.58;;;;;;;32.90;29.12;101097.00;5063688;28;20152;-66
2021/07/13 11:32:15;;;;;;;8.35;2.38;;;;;;;32.84;29.51;101098.69;5046337;28;20067;-66
2021/07/13 11:34:42;;;;;;;4.30;2.38;;;;;;;32.87;29.07;101107.34;5051833;28;20056;-66
2021/07/13 11:37:09;;;;;;;7.40;3.20;;;;;;;32.84;29.27;101116.84;5051073;28;20069;-66